Terminal Aerodrome Forecast
Issued by NWS

Home | Current Version | Previous Version | Text Only | Print | Product List | Glossary On
Versions: 1 2 3 4 5 6 7 8 9 10 11 12 13 14 15 16 17
000
FTUS45 KRIW 160539
TAFJAC
TAF
KJAC 160539Z 1606/1706 21007KT P6SM BKN060
     FM160800 20006KT P6SM VCSH OVC025
     FM161100 35007KT 2SM -SN OVC015
     FM162300 36008KT 4SM -SN OVC025
     FM170300 01008KT P6SM VCSH BKN040
      AMD LTD TO CLD VIS AND WIND=

USA.gov is the U.S. government's official web portal to all federal, state and local government web resources and services.